Αναφορές METAR Αεροδρομίων

 

LGTS - THESSALONIKI - GREECE
Ενημερώθηκε: 04/08/2021 11:50
Αίθριος
Αίθριος
 Ανεμος από ΝΝΔ
Ανεμος: ΝΝΔ 7 km/h
Θερμοκρασία: 36°C
Σημείο Δρόσου: 18°C
Υγρασία: 34%
Βαρόμετρο: 1014 hPa
Περίληψη: Αίθριος
Visibility: greater than 10 km
2021/08/04 08:50 LGTS 040850Z 21004KT CAVOK 36/18 Q1014 NOSIG
LGLR - LARTISA - GREECE
Ενημερώθηκε: 04/08/2021 11:50
Αίθριος
Αίθριος
 Ανεμος από Α
Ανεμος: Α 7 km/h
Θερμοκρασία: 37°C
Σημείο Δρόσου: 12°C
Υγρασία: 22%
Βαρόμετρο: 1014 hPa
Περίληψη: Αίθριος
Visibility: greater than 10 km
2021/08/04 08:50 LGLR 040850Z 09004KT CAVOK 37/12 Q1014 BLU
 
LGKZ - KOZANI - GREECE
Ενημερώθηκε: 04/08/2021 11:50
Αραιές Νεφώσεις
Αραιές Νεφώσεις
 Ανεμος από Ν
Ανεμος: Ν 7 km/h
Θερμοκρασία: 34°C
Σημείο Δρόσου: 3°C
Υγρασία: 14%
Βαρόμετρο: 1019 hPa
Clouds: Αραιές Νεφώσεις
Visibility: 10 km
Cloud details: Αραιές Νεφώσεις 2134 m
2021/08/04 08:50 LGKZ 040850Z 18004KT 9999 FEW070 34/03 Q1019
LGKV - KAVALA - GREECE
Ενημερώθηκε: 04/08/2021 11:50
Αίθριος
Αίθριος
 Ανεμος από ΝΑ
Ανεμος: ΝΑ 13 km/h
Θερμοκρασία: 33°C
Heat Index: 36°C
Σημείο Δρόσου: 21°C
Υγρασία: 49%
Βαρόμετρο: 1013 hPa
Περίληψη: Αίθριος
Visibility: greater than 10 km
2021/08/04 08:50 LGKV 040850Z 14007KT CAVOK 33/21 Q1013
 
LGIO - IOANNINA - GREECE
Ενημερώθηκε: 04/08/2021 11:50
Αίθριος
Αίθριος
 Ανεμος από calm
Ανεμος: Απνοια
Θερμοκρασία: 33°C
Σημείο Δρόσου: 11°C
Υγρασία: 26%
Βαρόμετρο: 1018 hPa
Περίληψη: Αίθριος
Visibility: greater than 10 km
2021/08/04 08:50 LGIO 040850Z 00000KT CAVOK 33/11 Q1018
LGBL - BOLOS - GREECE
Ενημερώθηκε: 04/08/2021 11:50
Αίθριος
Αίθριος
 Ανεμος από ΑΒΑ
Ανεμος: ΑΒΑ 13 km/h
Θερμοκρασία: 33°C
Heat Index: 35°C
Σημείο Δρόσου: 20°C
Υγρασία: 46%
Βαρόμετρο: 1013 hPa
Περίληψη: Αίθριος
Visibility: greater than 10 km
2021/08/04 08:50 LGBL 040850Z 07007KT CAVOK 33/20 Q1013
 
LGMT - MITILINI - GREECE
Ενημερώθηκε: 04/08/2021 11:50
Αίθριος
Αίθριος
 Ανεμος από Β
Ανεμος: Β 13 km/h
Θερμοκρασία: 32°C
Heat Index: 38°C
Σημείο Δρόσου: 24°C
Υγρασία: 63%
Βαρόμετρο: 1014 hPa
Περίληψη: Αίθριος
Visibility: greater than 10 km
2021/08/04 08:50 LGMT 040850Z 35007KT CAVOK 32/24 Q1014
LGAV - ATHENS - GREECE
Ενημερώθηκε: 04/08/2021 11:50
Αίθριος
Αίθριος
 Ανεμος από ΒΑ
Ανεμος: ΒΑ 13 km/h
Θερμοκρασία: 37°C
Σημείο Δρόσου: 9°C
Υγρασία: 18%
Βαρόμετρο: 1014 hPa
Περίληψη: Αίθριος
Visibility: greater than 10 km
2021/08/04 08:50 LGAV 040850Z 04007KT CAVOK 37/09 Q1014 NOSIG
 
LGRP - RODOS - GREECE
Ενημερώθηκε: 04/08/2021 11:50
Μερικώς νεφελώδης
Μερικώς νεφελώδης
 Ανεμος από ΝΔ
Ανεμος: ΝΔ 17 km/h
Θερμοκρασία: 35°C
Heat Index: 39°C
Σημείο Δρόσου: 22°C
Υγρασία: 47%
Βαρόμετρο: 1009 hPa
Clouds: Μερικώς νεφελώδης
Visibility: 8 km
2021/08/04 08:50 LGRP 040850Z 23009KT 8000 NSC 35/22 Q1009 NOSIG
LGIR - HRAKLIO/KRITI - GREECE
Ενημερώθηκε: 04/08/2021 11:50
Αίθριος
Αίθριος
 Ανεμος από ΒΔ
Ανεμος: ΒΔ 17 km/h
Θερμοκρασία: 34°C
Heat Index: 43°C
Σημείο Δρόσου: 26°C
Υγρασία: 63%
Βαρόμετρο: 1012 hPa
Περίληψη: Αίθριος
Visibility: greater than 10 km
2021/08/04 08:50 LGIR 040850Z 31009KT CAVOK 34/26 Q1012 NOSIG
 
LGMK - MIKONOS - GREECE
Ενημερώθηκε: 04/08/2021 11:50
Αίθριος
Αίθριος
 Ανεμος από ΒΒΑ
Ανεμος: ΒΒΑ 19 km/h
Θερμοκρασία: 36°C
Σημείο Δρόσου: 18°C
Υγρασία: 34%
Βαρόμετρο: 1013 hPa
Περίληψη: Αίθριος
Visibility: greater than 10 km
2021/08/04 08:50 LGMK 040850Z 02010KT CAVOK 36/18 Q1013
LGKR - KERKIRA - GREECE
Ενημερώθηκε: 04/08/2021 11:50
Αραιές Νεφώσεις
Αραιές Νεφώσεις
 Ανεμος από ΝΑ
Ανεμος: ΝΑ 7 km/h
Θερμοκρασία: 34°C
Heat Index: 43°C
Σημείο Δρόσου: 26°C
Υγρασία: 63%
Βαρόμετρο: 1014 hPa
Clouds: Αραιές Νεφώσεις
Visibility: 10 km
Cloud details: Αραιές Νεφώσεις 914 m
2021/08/04 08:50 LGKR 040850Z 14004KT 9999 FEW030 34/26 Q1014 NOSIG